Time;durP1;ratioP1;P1;durP2;ratioP2;P2;SDS_P1;SDS_P2;PMS_P1;PMS_P2;Temp;Humidity;BMP_temperature;BMP_pressure;BME280_temperature;BME280_humidity;BME280_pressure;Samples;Min_cycle;Max_cycle;Signal;HPM_P1;HPM_P2
2023/07/19 00:02:19;1001356.00;3.34;1734.87;209355.00;0.70;362.03;;;;;24.50;1.00;;;;;;2280546;60;1277;-88
2023/07/19 00:04:47;669254.00;2.23;1153.96;8029.00;0.03;14.53;;;;;24.00;1.00;;;;;;2280578;60;1134;-87
2023/07/19 00:07:15;1241884.00;4.14;2166.13;165986.00;0.55;287.35;;;;;23.70;1.00;;;;;;2280441;60;1543;-87
2023/07/19 00:09:41;597526.00;1.99;1029.95;82342.00;0.27;143.08;;;;;23.80;1.00;;;;;;2280606;60;986;-87
2023/07/19 00:12:09;614705.00;2.05;1059.62;103054.00;0.34;178.84;;;;;24.10;1.00;;;;;;2280422;60;1982;-86
2023/07/19 00:14:36;222532.00;0.74;384.70;48255.00;0.16;84.17;;;;;24.20;1.00;;;;;;2280542;60;1130;-87
2023/07/19 00:17:02;447356.00;1.49;771.23;61125.00;0.20;106.42;;;;;23.90;1.00;;;;;;2280417;60;1156;-85
2023/07/19 00:19:29;24122.00;0.08;42.41;0.00;0.00;0.62;;;;;23.70;1.00;;;;;;2280498;60;1085;-88
2023/07/19 00:21:57;66149.00;0.22;115.11;0.00;0.00;0.62;;;;;23.70;1.00;;;;;;2280458;60;1376;-87
2023/07/19 00:24:25;68157.00;0.23;118.58;0.00;0.00;0.62;;;;;23.90;1.00;;;;;;2280430;60;1622;-87
2023/07/19 00:26:51;15692.00;0.05;27.81;0.00;0.00;0.62;;;;;23.80;1.00;;;;;;2280403;60;1737;-88
2023/07/19 00:29:18;112146.00;0.37;194.53;31581.00;0.11;55.32;;;;;23.60;1.00;;;;;;2280392;60;1676;-87
2023/07/19 00:31:45;0.00;0.00;0.62;0.00;0.00;0.62;;;;;23.10;1.90;;;;;;2280415;60;2000;-88
2023/07/19 00:34:12;0.00;0.00;0.62;0.00;0.00;0.62;;;;;22.70;3.50;;;;;;2280508;60;1075;-87
2023/07/19 00:36:39;99099.00;0.33;172.02;0.00;0.00;0.62;;;;;22.50;4.80;;;;;;2280429;60;1087;-87
2023/07/19 00:39:07;85941.00;0.29;149.30;0.00;0.00;0.62;;;;;22.70;4.00;;;;;;2280498;60;1086;-87
2023/07/19 00:41:34;154373.00;0.51;267.34;0.00;0.00;0.62;;;;;22.90;3.30;;;;;;2280380;60;1375;-86
2023/07/19 00:44:01;255538.00;0.85;441.48;118000.00;0.39;204.63;;;;;23.10;2.70;;;;;;2280454;60;1158;-86
2023/07/19 00:46:28;59921.00;0.20;104.34;0.00;0.00;0.62;;;;;23.30;2.60;;;;;;2280412;60;1002;-87
2023/07/19 00:48:56;962.00;0.00;2.29;0.00;0.00;0.62;;;;;23.40;2.10;;;;;;2280257;60;1026;-88
2023/07/19 00:51:23;79490.00;0.26;138.16;0.00;0.00;0.62;;;;;23.80;1.00;;;;;;2280274;60;1998;-86
2023/07/19 00:53:51;0.00;0.00;0.62;0.00;0.00;0.62;;;;;24.00;1.00;;;;;;2280400;60;1145;-86
2023/07/19 00:56:21;6565.00;0.02;12.00;0.00;0.00;0.62;;;;;24.10;1.00;;;;;;2280396;60;1017;-86
2023/07/19 00:58:51;0.00;0.00;0.62;0.00;0.00;0.62;;;;;24.20;1.00;;;;;;2280347;60;1243;-86
2023/07/19 01:01:18;6337.00;0.02;11.60;0.00;0.00;0.62;;;;;24.30;1.00;;;;;;2280327;60;1479;-88
2023/07/19 01:03:45;16215.00;0.05;28.72;0.00;0.00;0.62;;;;;24.50;1.00;;;;;;2280401;60;914;-87
2023/07/19 01:06:13;35007.00;0.12;61.25;0.00;0.00;0.62;;;;;24.50;1.00;;;;;;2280334;60;1038;-88
2023/07/19 01:08:40;34014.00;0.11;59.53;0.00;0.00;0.62;;;;;24.50;1.00;;;;;;2280282;60;1046;-85
2023/07/19 01:11:06;0.00;0.00;0.62;0.00;0.00;0.62;;;;;24.60;1.00;;;;;;2280237;60;1553;-88
2023/07/19 01:13:35;66375.00;0.22;115.50;0.00;0.00;0.62;;;;;24.80;1.00;;;;;;2280288;60;2028;-88
2023/07/19 01:16:02;266668.00;0.89;460.61;89222.00;0.30;154.96;;;;;24.70;1.00;;;;;;2280103;60;1045;-87
2023/07/19 01:18:28;86867.00;0.29;150.90;0.00;0.00;0.62;;;;;24.70;1.00;;;;;;2280247;60;1120;-87
2023/07/19 01:20:55;11053.00;0.04;19.77;0.00;0.00;0.62;;;;;24.50;1.00;;;;;;2280262;60;1043;-87
2023/07/19 01:23:23;130210.00;0.43;225.69;0.00;0.00;0.62;;;;;24.60;1.00;;;;;;2280334;60;1486;-87
2023/07/19 01:25:51;0.00;0.00;0.62;0.00;0.00;0.62;;;;;24.60;1.00;;;;;;2280206;60;1019;-86
2023/07/19 01:28:19;73615.00;0.25;128.01;0.00;0.00;0.62;;;;;24.50;1.00;;;;;;2280265;60;1101;-88
2023/07/19 01:30:45;53436.00;0.18;93.13;0.00;0.00;0.62;;;;;24.60;1.00;;;;;;2280312;60;1052;-87
2023/07/19 01:33:12;0.00;0.00;0.62;0.00;0.00;0.62;;;;;24.20;1.00;;;;;;2280211;60;2008;-86
2023/07/19 01:35:39;233355.00;0.78;403.32;95371.00;0.32;165.58;;;;;23.70;1.00;;;;;;2280299;60;1118;-86
2023/07/19 01:38:06;36350.00;0.12;63.57;0.00;0.00;0.62;;;;;23.60;1.00;;;;;;2280262;60;1088;-86
2023/07/19 01:40:35;212484.00;0.71;367.41;57395.00;0.19;99.97;;;;;23.70;1.00;;;;;;2280204;60;1087;-86
2023/07/19 01:43:01;0.00;0.00;0.62;0.00;0.00;0.62;;;;;23.40;1.00;;;;;;2280132;60;2283;-87
2023/07/19 01:45:28;0.00;0.00;0.62;0.00;0.00;0.62;;;;;23.40;1.00;;;;;;2280253;60;1038;-86
2023/07/19 01:47:55;109818.00;0.37;190.52;0.00;0.00;0.62;;;;;23.90;1.00;;;;;;2280160;60;995;-87
2023/07/19 01:50:22;84032.00;0.28;146.00;14005.00;0.05;24.89;;;;;24.00;1.00;;;;;;2280111;60;1098;-87
2023/07/19 01:52:49;29631.00;0.10;51.94;0.00;0.00;0.62;;;;;23.90;1.00;;;;;;2280141;60;1910;-87
2023/07/19 01:55:16;49056.00;0.16;85.55;0.00;0.00;0.62;;;;;23.40;1.00;;;;;;2280130;60;1048;-88
2023/07/19 01:57:44;0.00;0.00;0.62;0.00;0.00;0.62;;;;;23.30;1.60;;;;;;2280109;60;1008;-87
2023/07/19 02:00:13;49674.00;0.17;86.62;0.00;0.00;0.62;;;;;23.40;1.10;;;;;;2280191;60;925;-86
2023/07/19 02:02:40;0.00;0.00;0.62;0.00;0.00;0.62;;;;;23.50;1.00;;;;;;2280062;60;1423;-87
2023/07/19 02:05:08;257938.00;0.86;445.60;47210.00;0.16;82.36;;;;;23.70;1.00;;;;;;2280163;60;1133;-86
2023/07/19 02:07:35;25734.00;0.09;45.20;0.00;0.00;0.62;;;;;23.90;1.00;;;;;;2280227;60;1157;-86
2023/07/19 02:10:02;5231.00;0.02;9.69;0.00;0.00;0.62;;;;;24.20;1.00;;;;;;2280068;60;1062;-87
2023/07/19 02:12:29;387828.00;1.29;668.88;0.00;0.00;0.62;;;;;24.30;1.00;;;;;;2280100;60;1919;-87
2023/07/19 02:14:57;706344.00;2.35;1218.24;46758.00;0.16;81.58;;;;;24.40;1.00;;;;;;2280208;60;1087;-88
2023/07/19 02:17:24;397993.00;1.33;686.35;15997.00;0.05;28.34;;;;;24.20;1.00;;;;;;2280094;60;1542;-86
2023/07/19 02:19:51;373776.00;1.25;644.73;0.00;0.00;0.62;;;;;24.00;1.00;;;;;;2280147;60;1246;-88
2023/07/19 02:22:18;378136.00;1.26;652.22;24991.00;0.08;43.91;;;;;23.90;1.00;;;;;;2280150;60;1401;-87
2023/07/19 02:24:44;380229.00;1.27;655.82;0.00;0.00;0.62;;;;;24.00;1.00;;;;;;2280018;60;1027;-87
2023/07/19 02:27:12;708908.00;2.36;1222.69;69983.00;0.23;121.73;;;;;23.90;1.00;;;;;;2279868;60;1140;-88
2023/07/19 02:29:39;528077.00;1.76;910.18;4936.00;0.02;9.17;;;;;24.20;1.00;;;;;;2279969;60;1286;-87
2023/07/19 02:32:08;349099.00;1.16;602.31;0.00;0.00;0.62;;;;;24.40;1.00;;;;;;2279880;60;1996;-87
2023/07/19 02:34:34;830794.00;2.77;1434.88;132664.00;0.44;229.92;;;;;24.30;1.00;;;;;;2279986;60;1040;-87
2023/07/19 02:37:01;628351.00;2.09;1083.20;138658.00;0.46;240.26;;;;;24.10;1.00;;;;;;2279887;60;1121;-87
2023/07/19 02:39:30;776732.00;2.59;1340.57;29020.00;0.10;50.89;;;;;24.40;1.00;;;;;;2279983;60;1200;-87
2023/07/19 02:41:57;1102599.00;3.68;1915.07;172005.00;0.57;297.72;;;;;24.40;1.00;;;;;;2279964;60;1379;-86
2023/07/19 02:44:24;584102.00;1.95;1006.78;56302.00;0.19;98.08;;;;;24.40;1.00;;;;;;2279824;60;1071;-87
2023/07/19 02:46:51;872228.00;2.91;1507.39;78726.00;0.26;136.84;;;;;24.40;1.00;;;;;;2279883;60;1008;-87
2023/07/19 02:49:19;672412.00;2.24;1159.43;9575.00;0.03;17.21;;;;;24.30;1.00;;;;;;2279927;60;1141;-87
2023/07/19 02:51:46;411212.00;1.37;709.08;0.00;0.00;0.62;;;;;24.10;1.00;;;;;;2279912;60;1256;-86
2023/07/19 02:54:13;736700.00;2.46;1270.94;39857.00;0.13;69.64;;;;;24.00;1.00;;;;;;2279878;60;2018;-87
2023/07/19 02:56:39;450551.00;1.50;776.73;67665.00;0.23;117.73;;;;;23.80;1.00;;;;;;2279774;60;1137;-87
2023/07/19 02:59:06;669306.00;2.23;1154.05;60715.00;0.20;105.71;;;;;24.00;1.00;;;;;;2279873;60;1063;-87
2023/07/19 03:01:33;1100802.00;3.67;1911.86;152075.00;0.51;263.38;;;;;24.20;1.00;;;;;;2279928;60;1421;-87
2023/07/19 03:04:02;686732.00;2.29;1184.24;68251.00;0.23;118.74;;;;;24.30;1.00;;;;;;2280007;60;1004;-86
2023/07/19 03:06:31;479302.00;1.60;826.20;90229.00;0.30;156.70;;;;;24.30;1.00;;;;;;2280135;60;1098;-87
2023/07/19 03:08:57;311952.00;1.04;538.46;59071.00;0.20;102.87;;;;;24.30;1.00;;;;;;2280182;60;1001;-87
2023/07/19 03:11:24;383372.00;1.28;661.22;127994.00;0.43;221.87;;;;;24.10;1.00;;;;;;2280080;60;1383;-87
2023/07/19 03:13:51;160291.00;0.53;277.54;57150.00;0.19;99.55;;;;;24.00;1.00;;;;;;2280145;60;1990;-87
2023/07/19 03:16:18;231954.00;0.77;400.91;72624.00;0.24;126.29;;;;;24.00;1.00;;;;;;2280020;60;1153;-88
2023/07/19 03:18:45;306563.00;1.02;529.20;71972.00;0.24;125.17;;;;;24.00;1.00;;;;;;2280117;60;1027;-87
2023/07/19 03:21:12;303768.00;1.01;524.40;79030.00;0.26;137.36;;;;;23.80;1.00;;;;;;2279975;60;1252;-87
2023/07/19 03:23:40;173949.00;0.58;301.07;67250.00;0.22;117.01;;;;;23.50;1.00;;;;;;2279969;60;1090;-86
2023/07/19 03:26:07;187547.00;0.63;324.49;65261.00;0.22;113.57;;;;;23.50;1.00;;;;;;2280028;60;1144;-87
2023/07/19 03:28:34;168682.00;0.56;292.00;63789.00;0.21;111.03;;;;;23.70;1.00;;;;;;2280111;60;1106;-86
2023/07/19 03:31:01;233568.00;0.78;403.69;62522.00;0.21;108.84;;;;;24.00;1.00;;;;;;2279959;60;1398;-88
2023/07/19 03:33:28;322031.00;1.07;555.79;73322.00;0.24;127.50;;;;;24.20;1.00;;;;;;2279982;60;1982;-87
2023/07/19 03:35:54;212933.00;0.71;368.18;67482.00;0.22;117.41;;;;;24.30;1.00;;;;;;2280049;60;1110;-87
2023/07/19 03:38:22;270561.00;0.90;467.31;94058.00;0.31;163.31;;;;;24.60;1.00;;;;;;2280050;60;1021;-88
2023/07/19 03:40:50;117871568.00;392.91;66337688.00;115083.00;0.38;199.60;;;;;24.70;1.00;;;;;;2280041;60;1043;-86
2023/07/19 03:43:17;253068.00;0.84;437.23;64598.00;0.22;112.42;;;;;24.30;1.00;;;;;;2279980;60;1344;-86
2023/07/19 03:45:44;170677.00;0.57;295.43;64246.00;0.21;111.82;;;;;24.10;1.00;;;;;;2280041;60;1121;-86
2023/07/19 03:48:11;175378.00;0.58;303.53;72710.00;0.24;126.44;;;;;24.20;1.00;;;;;;2280021;60;970;-88
2023/07/19 03:50:37;57886.00;0.19;100.82;0.00;0.00;0.62;;;;;24.50;1.00;;;;;;2280669;60;1101;-87
2023/07/19 03:53:05;75756.00;0.25;131.71;0.00;0.00;0.62;;;;;24.50;1.00;;;;;;2280615;60;1919;-86
2023/07/19 03:55:32;43474.00;0.14;75.90;0.00;0.00;0.62;;;;;24.10;1.00;;;;;;2280710;60;1067;-87
2023/07/19 03:58:00;134031.00;0.45;232.28;52946.00;0.18;92.28;;;;;23.80;1.00;;;;;;2280630;60;1022;-87
2023/07/19 04:00:28;237413.00;0.79;410.30;34402.00;0.11;60.20;;;;;23.40;1.00;;;;;;2280802;60;1112;-86
2023/07/19 04:02:55;145126.00;0.48;251.41;25419.00;0.08;44.65;;;;;23.40;1.00;;;;;;2280710;60;1439;-86
2023/07/19 04:05:22;108964.00;0.36;189.04;42511.00;0.14;74.23;;;;;23.10;1.10;;;;;;2280701;60;1000;-86
2023/07/19 04:07:49;20849.00;0.07;36.74;0.00;0.00;0.62;;;;;23.10;1.00;;;;;;2280801;60;900;-88
2023/07/19 04:10:15;208788.00;0.70;361.05;49310.00;0.16;85.99;;;;;23.10;1.60;;;;;;2280626;60;1021;-86
2023/07/19 04:12:42;100037.00;0.33;173.64;0.00;0.00;0.62;;;;;23.00;1.50;;;;;;2280598;60;2000;-85
2023/07/19 04:15:11;89515.00;0.30;155.47;0.00;0.00;0.62;;;;;22.90;1.80;;;;;;2280670;60;1069;-87
2023/07/19 04:17:38;71200.00;0.24;123.83;0.00;0.00;0.62;;;;;22.80;2.40;;;;;;2280467;60;1341;-87
2023/07/19 04:20:07;111215.00;0.37;192.93;44628.00;0.15;77.89;;;;;22.50;3.10;;;;;;2280520;60;1083;-87
2023/07/19 04:22:34;132379.00;0.44;229.43;0.00;0.00;0.62;;;;;22.30;4.10;;;;;;2280402;60;1362;-88
2023/07/19 04:25:01;0.00;0.00;0.62;0.00;0.00;0.62;;;;;22.60;3.20;;;;;;2280608;60;1091;-87
2023/07/19 04:27:28;184293.00;0.61;318.88;34359.00;0.11;60.13;;;;;22.40;3.10;;;;;;2280542;60;1404;-87
2023/07/19 04:29:55;336985.00;1.12;581.49;86780.00;0.29;150.75;;;;;22.20;3.70;;;;;;2280433;60;996;-87
2023/07/19 04:32:23;0.00;0.00;0.62;0.00;0.00;0.62;;;;;22.50;3.30;;;;;;2280579;60;2145;-86
2023/07/19 04:34:50;371605.00;1.24;641.00;19960.00;0.07;35.20;;;;;22.70;2.30;;;;;;2280716;60;1099;-88
2023/07/19 04:37:17;94053.00;0.31;163.31;25122.00;0.08;44.14;;;;;22.70;2.40;;;;;;2280666;60;1051;-88
2023/07/19 04:39:44;227574.00;0.76;393.38;0.00;0.00;0.62;;;;;22.80;1.70;;;;;;2280627;60;1087;-87
2023/07/19 04:42:10;9504.00;0.03;17.09;0.00;0.00;0.62;;;;;23.00;1.60;;;;;;2280591;60;1411;-86
2023/07/19 04:44:38;0.00;0.00;0.62;0.00;0.00;0.62;;;;;23.40;1.00;;;;;;2280693;60;1075;-87
2023/07/19 04:47:06;0.00;0.00;0.62;0.00;0.00;0.62;;;;;23.20;1.00;;;;;;2280721;60;1011;-87
2023/07/19 04:49:34;26902.00;0.09;47.22;0.00;0.00;0.62;;;;;23.20;1.00;;;;;;2280678;60;1131;-88
2023/07/19 04:52:01;0.00;0.00;0.62;0.00;0.00;0.62;;;;;23.40;1.00;;;;;;2280630;60;1325;-87
2023/07/19 04:54:27;49968.00;0.17;87.13;0.00;0.00;0.62;;;;;23.50;1.00;;;;;;2280642;60;1989;-87
2023/07/19 04:56:54;0.00;0.00;0.62;0.00;0.00;0.62;;;;;23.50;1.00;;;;;;2280667;60;1028;-87
2023/07/19 04:59:21;231832.00;0.77;400.70;0.00;0.00;0.62;;;;;23.60;1.00;;;;;;2280665;60;1180;-86
2023/07/19 05:01:48;37889.00;0.13;66.24;0.00;0.00;0.62;;;;;23.80;1.00;;;;;;2280398;60;1265;-87
2023/07/19 05:04:15;195179.00;0.65;337.62;49438.00;0.16;86.21;;;;;24.20;1.00;;;;;;2280609;60;1059;-86
2023/07/19 05:06:43;146523.00;0.49;253.81;77213.00;0.26;134.22;;;;;24.30;1.00;;;;;;2280672;60;921;-87
2023/07/19 05:09:11;102428.00;0.34;177.76;15760.00;0.05;27.93;;;;;24.40;1.00;;;;;;2280578;60;1122;-87
2023/07/19 05:11:39;128946.00;0.43;223.51;0.00;0.00;0.62;;;;;24.50;1.00;;;;;;2280598;60;1379;-87
2023/07/19 05:14:06;330793.00;1.10;570.85;107001.00;0.36;185.65;;;;;24.60;1.00;;;;;;2280588;60;1907;-86
2023/07/19 05:16:34;40064.00;0.13;70.00;0.00;0.00;0.62;;;;;24.50;1.00;;;;;;2280638;60;1096;-88
2023/07/19 05:19:01;62993.00;0.21;109.65;0.00;0.00;0.62;;;;;24.50;1.00;;;;;;2280543;60;1191;-87
2023/07/19 05:21:28;0.00;0.00;0.62;0.00;0.00;0.62;;;;;24.40;1.00;;;;;;2280567;60;1473;-86
2023/07/19 05:23:56;100013.00;0.33;173.59;16948.00;0.06;29.98;;;;;24.40;1.00;;;;;;2280502;60;1154;-86
2023/07/19 05:26:24;64789.00;0.22;112.75;0.00;0.00;0.62;;;;;24.60;1.00;;;;;;2280536;60;1104;-87
2023/07/19 05:28:50;166716.00;0.56;288.61;0.00;0.00;0.62;;;;;24.60;1.00;;;;;;2280370;60;977;-86
2023/07/19 05:31:18;13839.00;0.05;24.60;0.00;0.00;0.62;;;;;24.70;1.00;;;;;;2280359;60;1388;-86
2023/07/19 05:33:45;14228.00;0.05;25.27;0.00;0.00;0.62;;;;;24.60;1.00;;;;;;2280468;60;1912;-86
2023/07/19 05:36:11;63367.00;0.21;110.30;0.00;0.00;0.62;;;;;24.40;1.00;;;;;;2280424;60;1122;-85
2023/07/19 05:38:38;52762.00;0.18;91.96;0.00;0.00;0.62;;;;;24.70;1.00;;;;;;2280435;60;1112;-85
2023/07/19 05:41:07;105946.00;0.35;183.83;0.00;0.00;0.62;;;;;24.90;1.00;;;;;;2280509;60;1396;-85
2023/07/19 05:43:34;0.00;0.00;0.62;0.00;0.00;0.62;;;;;25.30;1.00;;;;;;2280569;60;1065;-86
2023/07/19 05:46:05;438801.00;1.46;756.52;112323.00;0.37;194.84;;;;;25.40;1.00;;;;;;2280536;60;1105;-87
2023/07/19 05:48:32;0.00;0.00;0.62;0.00;0.00;0.62;;;;;26.00;1.00;;;;;;2280441;60;1044;-87
2023/07/19 05:50:59;253020.00;0.84;437.14;101512.00;0.34;176.18;;;;;27.20;1.00;;;;;;2280421;60;1192;-86
2023/07/19 05:53:26;0.00;0.00;0.62;0.00;0.00;0.62;;;;;28.10;1.00;;;;;;2280364;60;1989;-88
2023/07/19 05:55:53;19904.00;0.07;35.10;0.00;0.00;0.62;;;;;29.40;1.00;;;;;;2280427;60;1012;-86
2023/07/19 05:58:22;0.00;0.00;0.62;0.00;0.00;0.62;;;;;30.20;1.00;;;;;;2280468;60;1151;-88
2023/07/19 06:00:49;62212.00;0.21;108.30;0.00;0.00;0.62;;;;;30.80;1.00;;;;;;2280449;60;1169;-86
2023/07/19 06:03:17;172096.00;0.57;297.88;42131.00;0.14;73.58;;;;;30.80;1.00;;;;;;2280492;60;1323;-87
2023/07/19 06:05:44;51374.00;0.17;89.56;0.00;0.00;0.62;;;;;30.70;1.00;;;;;;2280291;60;834;-87
2023/07/19 06:08:11;12075.00;0.04;21.54;0.00;0.00;0.62;;;;;30.60;1.00;;;;;;2280337;60;1183;-88
2023/07/19 06:10:38;747.00;0.00;1.91;0.00;0.00;0.62;;;;;30.60;1.00;;;;;;2280372;60;1178;-88
2023/07/19 06:13:05;0.00;0.00;0.62;0.00;0.00;0.62;;;;;31.30;1.00;;;;;;2280041;60;2008;-86
2023/07/19 06:15:34;34127.00;0.11;59.73;0.00;0.00;0.62;;;;;32.20;1.00;;;;;;2280370;60;1037;-88
2023/07/19 06:18:02;0.00;0.00;0.62;0.00;0.00;0.62;;;;;33.10;1.00;;;;;;2280324;60;1129;-88
2023/07/19 06:20:29;284003.00;0.95;490.42;56641.00;0.19;98.67;;;;;34.10;1.00;;;;;;2280402;60;1180;-86
2023/07/19 06:22:56;1697.00;0.01;3.56;0.00;0.00;0.62;;;;;34.80;1.00;;;;;;2280347;60;1393;-85
2023/07/19 06:25:23;136774.00;0.46;237.01;56214.00;0.19;97.93;;;;;35.20;1.00;;;;;;2280312;60;1703;-86
2023/07/19 06:27:50;169435.00;0.56;293.29;57473.00;0.19;100.11;;;;;35.50;1.00;;;;;;2280295;60;1731;-86
2023/07/19 06:30:17;197778.00;0.66;342.10;55212.00;0.18;96.20;;;;;35.10;1.00;;;;;;2280239;60;1758;-86
2023/07/19 06:32:45;0.00;0.00;0.62;0.00;0.00;0.62;;;;;35.50;1.00;;;;;;2280033;60;1986;-86
2023/07/19 06:35:12;0.00;0.00;0.62;0.00;0.00;0.62;;;;;36.00;1.00;;;;;;2279663;60;2296;-86
2023/07/19 06:37:39;0.00;0.00;0.62;0.00;0.00;0.62;;;;;36.20;1.00;;;;;;2280255;60;1696;-86
2023/07/19 06:40:07;28230.00;0.09;49.52;0.00;0.00;0.62;;;;;36.60;1.00;;;;;;2280187;60;1608;-86
2023/07/19 06:42:34;0.00;0.00;0.62;0.00;0.00;0.62;;;;;36.20;1.00;;;;;;2280255;60;1686;-87
2023/07/19 06:45:01;22115.00;0.07;38.93;0.00;0.00;0.62;;;;;35.60;1.00;;;;;;2280334;60;1067;-87
2023/07/19 06:47:29;0.00;0.00;0.62;0.00;0.00;0.62;;;;;34.90;1.00;;;;;;2280259;60;1568;-86
2023/07/19 06:49:58;147534.00;0.49;255.56;13120.00;0.04;23.35;;;;;34.70;1.00;;;;;;2280153;60;1992;-86
2023/07/19 06:52:25;13789.00;0.05;24.51;0.00;0.00;0.62;;;;;34.70;1.00;;;;;;2279787;60;1346;-87
2023/07/19 06:54:52;176710.00;0.59;305.82;23949.00;0.08;42.11;;;;;35.30;1.00;;;;;;2279704;60;2002;-88
2023/07/19 06:57:21;803238.00;2.68;1386.77;69623.00;0.23;121.11;;;;;35.80;1.00;;;;;;2280114;60;1767;-86
2023/07/19 06:59:49;1228488.00;4.09;2141.81;80809.00;0.27;140.43;;;;;36.40;1.00;;;;;;2280463;60;1064;-86
2023/07/19 07:02:18;479314.00;1.60;826.22;0.00;0.00;0.62;;;;;36.70;1.00;;;;;;2280228;60;1623;-85
2023/07/19 07:04:45;1076860.00;3.59;1869.09;0.00;0.00;0.62;;;;;36.90;1.00;;;;;;2280257;60;1926;-85
2023/07/19 07:07:15;475660.00;1.59;819.93;100549.00;0.34;174.52;;;;;36.80;1.00;;;;;;2280298;60;1705;-86
2023/07/19 07:09:42;175519.00;0.59;303.77;58509.00;0.20;101.90;;;;;37.20;1.00;;;;;;2280250;60;1619;-85
2023/07/19 07:12:10;211622.00;0.71;365.93;59377.00;0.20;103.40;;;;;37.60;1.00;;;;;;2280174;60;1572;-86
2023/07/19 07:14:37;164031.00;0.55;283.98;55829.00;0.19;97.27;;;;;37.30;1.00;;;;;;2280212;60;1997;-86
2023/07/19 07:17:05;176123.00;0.59;304.81;59159.00;0.20;103.02;;;;;37.10;1.00;;;;;;2279826;60;1555;-86
2023/07/19 07:19:32;169576.00;0.57;293.54;50357.00;0.17;87.80;;;;;36.50;1.00;;;;;;2280318;60;1094;-86
2023/07/19 07:21:59;219413.00;0.73;379.33;54970.00;0.18;95.78;;;;;36.50;1.00;;;;;;2280221;60;1941;-86
2023/07/19 07:24:28;342370.00;1.14;590.75;76372.00;0.25;132.77;;;;;36.40;1.00;;;;;;2280622;60;1879;-86
2023/07/19 07:26:55;0.00;0.00;0.62;0.00;0.00;0.62;;;;;36.50;1.00;;;;;;2280947;60;1686;-86
2023/07/19 07:29:22;213733.00;0.71;369.56;34129.00;0.11;59.73;;;;;35.80;1.00;;;;;;2280991;60;2140;-84
2023/07/19 07:31:48;115883.00;0.39;200.98;0.00;0.00;0.62;;;;;35.90;1.00;;;;;;2280921;60;2050;-87
2023/07/19 07:34:16;52837.00;0.18;92.09;0.00;0.00;0.62;;;;;36.00;1.00;;;;;;2280883;60;1927;-85
2023/07/19 07:36:43;320975.00;1.07;553.97;109832.00;0.37;190.54;;;;;36.40;1.00;;;;;;2280976;60;1830;-86
2023/07/19 07:39:11;0.00;0.00;0.62;0.00;0.00;0.62;;;;;36.70;1.00;;;;;;2280845;60;1701;-86
2023/07/19 07:41:39;286548.00;0.96;494.79;40756.00;0.14;71.20;;;;;35.90;1.00;;;;;;2280846;60;1564;-86
2023/07/19 07:44:06;26236.00;0.09;46.07;0.00;0.00;0.62;;;;;36.00;1.00;;;;;;2280878;60;2179;-85
2023/07/19 07:46:33;62416.00;0.21;108.65;0.00;0.00;0.62;;;;;36.30;1.00;;;;;;2280924;60;1683;-85
2023/07/19 07:49:00;141560.00;0.47;245.26;0.00;0.00;0.62;;;;;36.70;1.00;;;;;;2280888;60;1012;-84
2023/07/19 07:51:29;0.00;0.00;0.62;0.00;0.00;0.62;;;;;37.00;1.00;;;;;;2280749;60;1579;-85
2023/07/19 07:53:56;85032.00;0.28;147.73;0.00;0.00;0.62;;;;;36.90;1.00;;;;;;2280741;60;2024;-85
2023/07/19 07:56:25;9943.00;0.03;17.85;0.00;0.00;0.62;;;;;35.90;1.00;;;;;;2280855;60;2259;-86
2023/07/19 07:58:53;0.00;0.00;0.62;0.00;0.00;0.62;;;;;35.50;1.00;;;;;;2280699;60;1930;-85
2023/07/19 08:01:20;0.00;0.00;0.62;0.00;0.00;0.62;;;;;35.00;1.00;;;;;;2280827;60;1700;-85
2023/07/19 08:03:47;0.00;0.00;0.62;0.00;0.00;0.62;;;;;35.10;1.00;;;;;;2280885;60;1673;-86
2023/07/19 08:06:14;0.00;0.00;0.62;0.00;0.00;0.62;;;;;34.90;1.00;;;;;;2280810;60;1534;-86
2023/07/19 08:08:41;86915.00;0.29;150.98;0.00;0.00;0.62;;;;;35.10;1.00;;;;;;2280789;60;1853;-85
2023/07/19 08:11:09;37580.00;0.13;65.70;0.00;0.00;0.62;;;;;34.90;1.00;;;;;;2280847;60;1681;-85
2023/07/19 08:13:36;23802.00;0.08;41.85;0.00;0.00;0.62;;;;;34.80;1.00;;;;;;2280716;60;2008;-85
2023/07/19 08:16:06;69771.00;0.23;121.36;0.00;0.00;0.62;;;;;34.10;1.00;;;;;;2280815;60;1889;-85
2023/07/19 08:18:33;136664.00;0.46;236.82;0.00;0.00;0.62;;;;;34.10;1.00;;;;;;2280758;60;1560;-86
2023/07/19 08:21:00;0.00;0.00;0.62;0.00;0.00;0.62;;;;;34.70;1.00;;;;;;2280759;60;2042;-85
2023/07/19 08:23:27;0.00;0.00;0.62;0.00;0.00;0.62;;;;;35.30;1.00;;;;;;2280797;60;1713;-86
2023/07/19 08:25:57;0.00;0.00;0.62;0.00;0.00;0.62;;;;;35.70;1.00;;;;;;2280756;60;1729;-85
2023/07/19 08:28:25;0.00;0.00;0.62;0.00;0.00;0.62;;;;;36.00;1.00;;;;;;2280635;60;1668;-85
2023/07/19 08:30:52;91736.00;0.31;159.31;0.00;0.00;0.62;;;;;36.40;1.00;;;;;;2280827;60;2253;-86
2023/07/19 08:33:22;21374.00;0.07;37.65;0.00;0.00;0.62;;;;;36.50;1.00;;;;;;2280667;60;1707;-85
2023/07/19 08:35:49;0.00;0.00;0.62;0.00;0.00;0.62;;;;;36.90;1.00;;;;;;2280703;60;2019;-87
2023/07/19 08:38:16;44292.00;0.15;77.31;0.00;0.00;0.62;;;;;37.20;1.00;;;;;;2280745;60;2103;-85
2023/07/19 08:41:01;64363.00;0.21;112.02;0.00;0.00;0.62;;;;;37.00;1.00;;;;;;2280754;60;1673;-85
2023/07/19 08:43:29;21807.00;0.07;38.40;0.00;0.00;0.62;;;;;36.80;1.00;;;;;;2280697;60;1568;-86
2023/07/19 08:45:56;96149.00;0.32;166.92;0.00;0.00;0.62;;;;;36.90;1.00;;;;;;2280636;60;1986;-85
2023/07/19 08:48:25;81482.00;0.27;141.60;15624.00;0.05;27.69;;;;;36.00;1.00;;;;;;2280706;60;2301;-85
2023/07/19 08:50:56;50315.00;0.17;87.73;0.00;0.00;0.62;;;;;36.20;1.00;;;;;;2280760;60;2029;-85
2023/07/19 08:53:23;0.00;0.00;0.62;0.00;0.00;0.62;;;;;36.40;1.00;;;;;;2280301;60;1771;-86
2023/07/19 08:55:51;34231.00;0.11;59.91;0.00;0.00;0.62;;;;;36.40;1.00;;;;;;2280501;60;2021;-86
2023/07/19 08:58:19;41917.00;0.14;73.20;0.00;0.00;0.62;;;;;37.00;1.00;;;;;;2280670;60;2230;-86
2023/07/19 09:00:47;28943.00;0.10;50.75;0.00;0.00;0.62;;;;;36.60;1.00;;;;;;2280473;60;1685;-86
2023/07/19 09:03:15;0.00;0.00;0.62;0.00;0.00;0.62;;;;;36.00;1.00;;;;;;2280619;60;1547;-86
2023/07/19 09:05:46;223773.00;0.75;386.84;93452.00;0.31;162.27;;;;;36.00;1.00;;;;;;2280704;60;2246;-87
2023/07/19 09:08:13;59108.00;0.20;102.93;0.00;0.00;0.62;;;;;35.70;1.00;;;;;;2280566;60;1765;-86
2023/07/19 09:10:44;0.00;0.00;0.62;0.00;0.00;0.62;;;;;35.80;1.00;;;;;;2280634;60;1561;-85
2023/07/19 09:13:11;1473.00;0.00;3.17;0.00;0.00;0.62;;;;;35.90;1.00;;;;;;2280641;60;2128;-86
2023/07/19 09:15:39;0.00;0.00;0.62;0.00;0.00;0.62;;;;;36.00;1.00;;;;;;2280514;60;1928;-86
2023/07/19 09:18:07;26183.00;0.09;45.98;0.00;0.00;0.62;;;;;35.70;1.00;;;;;;2280578;60;1126;-86
2023/07/19 09:20:37;343125.00;1.14;592.04;126521.00;0.42;219.33;;;;;34.80;1.00;;;;;;2280608;60;1488;-86
2023/07/19 09:23:07;6926.00;0.02;12.62;0.00;0.00;0.62;;;;;34.70;1.00;;;;;;2280561;60;2033;-86
2023/07/19 09:25:34;22459.00;0.07;39.53;0.00;0.00;0.62;;;;;34.70;1.00;;;;;;2280581;60;1595;-87
2023/07/19 09:28:08;153983.00;0.51;266.67;45773.00;0.15;79.88;;;;;34.20;1.00;;;;;;2280553;60;1629;-85
2023/07/19 09:30:35;84497.00;0.28;146.80;0.00;0.00;0.62;;;;;34.20;1.00;;;;;;2280586;60;1745;-87
2023/07/19 09:33:02;0.00;0.00;0.62;0.00;0.00;0.62;;;;;34.70;1.00;;;;;;2280518;60;1699;-86
2023/07/19 09:35:30;0.00;0.00;0.62;0.00;0.00;0.62;;;;;35.10;1.00;;;;;;2280565;60;1998;-87
2023/07/19 09:37:58;192700.00;0.64;333.36;9878.00;0.03;17.74;;;;;35.40;1.00;;;;;;2280568;60;1759;-87
2023/07/19 09:40:27;832554.00;2.78;1437.96;0.00;0.00;0.62;;;;;35.10;1.00;;;;;;2280560;60;2261;-85
2023/07/19 09:42:57;947155.00;3.16;1639.09;61039.00;0.20;106.27;;;;;35.40;1.00;;;;;;2280501;60;1616;-86
2023/07/19 09:45:28;644884.00;2.15;1111.79;23213.00;0.08;40.83;;;;;35.40;1.00;;;;;;2280332;60;1733;-85
2023/07/19 09:47:58;123931.00;0.41;214.86;0.00;0.00;0.62;;;;;35.10;1.00;;;;;;2280480;60;1158;-87
2023/07/19 09:50:27;861935.00;2.87;1489.36;40167.00;0.13;70.18;;;;;35.00;1.00;;;;;;2280527;60;2166;-86
2023/07/19 09:52:59;571799.00;1.91;985.55;85769.00;0.29;149.00;;;;;34.30;1.00;;;;;;2280510;60;1638;-86
2023/07/19 09:55:27;719667.00;2.40;1241.36;47919.00;0.16;83.59;;;;;33.60;1.00;;;;;;2280569;60;1919;-86
2023/07/19 09:57:57;1099036.00;3.66;1908.70;92020.00;0.31;159.80;;;;;33.10;1.00;;;;;;2280494;60;1995;-85
2023/07/19 10:00:24;1169900.00;3.90;2035.89;69572.00;0.23;121.02;;;;;32.60;1.00;;;;;;2280493;60;1918;-86